Terminal Aerodrome Forecast
Issued by NWS Twin Cities, MN

Home | Current Version | Previous Version | Graphics & Text | Print | Product List | Glossary On
Versions: 1 2 3 4 5 6 7 8 9 10 11 12 13 14 15 16
000
FTUS43 KMPX 152300
TAFEAU
TAF
KEAU 152336Z 1600/1624 18005KT P6SM BKN100
     FM160900 11014KT P6SM VCSH OVC080
     FM161100 10015G22KT 5SM -SN OVC050
     FM161300 10017G24KT 2SM -SN OVC020
     FM161600 09014G24KT 5SM -RA BR OVC020=

USA.gov is the U.S. government's official web portal to all federal, state and local government web resources and services.